sensor_id;sensor_type;location;lat;lon;timestamp;P1;durP1;ratioP1;P2;durP2;ratioP2
6197;SDS011;3132;42.622;23.328;2023-03-14T00:00:37;15.10;;;13.63;;
6197;SDS011;3132;42.622;23.328;2023-03-14T00:03:03;13.97;;;12.70;;
6197;SDS011;3132;42.622;23.328;2023-03-14T00:05:29;14.53;;;13.13;;
6197;SDS011;3132;42.622;23.328;2023-03-14T00:07:54;12.77;;;11.50;;
6197;SDS011;3132;42.622;23.328;2023-03-14T00:10:20;13.20;;;11.90;;
6197;SDS011;3132;42.622;23.328;2023-03-14T00:12:45;12.47;;;11.47;;
6197;SDS011;3132;42.622;23.328;2023-03-14T00:15:11;13.03;;;12.03;;
6197;SDS011;3132;42.622;23.328;2023-03-14T00:17:37;13.17;;;11.87;;
6197;SDS011;3132;42.622;23.328;2023-03-14T00:20:05;14.57;;;12.03;;
6197;SDS011;3132;42.622;23.328;2023-03-14T00:22:35;14.53;;;13.30;;
6197;SDS011;3132;42.622;23.328;2023-03-14T00:25:01;14.03;;;12.53;;
6197;SDS011;3132;42.622;23.328;2023-03-14T00:27:27;14.77;;;13.43;;
6197;SDS011;3132;42.622;23.328;2023-03-14T00:29:52;14.07;;;12.70;;
6197;SDS011;3132;42.622;23.328;2023-03-14T00:32:18;12.73;;;11.57;;
6197;SDS011;3132;42.622;23.328;2023-03-14T00:34:43;13.83;;;12.63;;
6197;SDS011;3132;42.622;23.328;2023-03-14T00:37:08;14.07;;;12.67;;
6197;SDS011;3132;42.622;23.328;2023-03-14T00:39:34;12.33;;;11.53;;
6197;SDS011;3132;42.622;23.328;2023-03-14T00:41:59;12.53;;;11.40;;
6197;SDS011;3132;42.622;23.328;2023-03-14T00:44:25;11.57;;;10.57;;
6197;SDS011;3132;42.622;23.328;2023-03-14T00:46:50;13.27;;;11.93;;
6197;SDS011;3132;42.622;23.328;2023-03-14T00:49:16;12.07;;;11.17;;
6197;SDS011;3132;42.622;23.328;2023-03-14T00:51:41;10.53;;;9.90;;
6197;SDS011;3132;42.622;23.328;2023-03-14T00:54:06;12.27;;;11.37;;
6197;SDS011;3132;42.622;23.328;2023-03-14T00:56:32;12.53;;;11.60;;
6197;SDS011;3132;42.622;23.328;2023-03-14T00:58:57;13.13;;;12.13;;
6197;SDS011;3132;42.622;23.328;2023-03-14T01:01:23;13.07;;;12.07;;
6197;SDS011;3132;42.622;23.328;2023-03-14T01:03:52;12.57;;;11.57;;
6197;SDS011;3132;42.622;23.328;2023-03-14T01:06:19;13.23;;;11.93;;
6197;SDS011;3132;42.622;23.328;2023-03-14T01:08:46;14.17;;;12.93;;
6197;SDS011;3132;42.622;23.328;2023-03-14T01:11:13;13.00;;;11.93;;
6197;SDS011;3132;42.622;23.328;2023-03-14T01:13:41;13.20;;;12.10;;
6197;SDS011;3132;42.622;23.328;2023-03-14T01:16:08;13.90;;;12.73;;
6197;SDS011;3132;42.622;23.328;2023-03-14T01:18:35;14.27;;;12.97;;
6197;SDS011;3132;42.622;23.328;2023-03-14T01:21:02;14.80;;;13.37;;
6197;SDS011;3132;42.622;23.328;2023-03-14T01:23:28;15.07;;;13.57;;
6197;SDS011;3132;42.622;23.328;2023-03-14T01:25:54;15.53;;;13.93;;
6197;SDS011;3132;42.622;23.328;2023-03-14T01:28:19;15.43;;;13.33;;
6197;SDS011;3132;42.622;23.328;2023-03-14T01:30:44;16.10;;;14.70;;
6197;SDS011;3132;42.622;23.328;2023-03-14T01:33:10;15.13;;;13.73;;
6197;SDS011;3132;42.622;23.328;2023-03-14T01:35:37;16.50;;;14.77;;
6197;SDS011;3132;42.622;23.328;2023-03-14T01:38:03;16.20;;;14.80;;
6197;SDS011;3132;42.622;23.328;2023-03-14T01:40:28;18.40;;;15.23;;
6197;SDS011;3132;42.622;23.328;2023-03-14T01:42:54;18.13;;;14.43;;
6197;SDS011;3132;42.622;23.328;2023-03-14T01:48:25;20.90;;;15.37;;
6197;SDS011;3132;42.622;23.328;2023-03-14T01:50:52;18.13;;;15.87;;
6197;SDS011;3132;42.622;23.328;2023-03-14T01:53:18;23.80;;;16.60;;
6197;SDS011;3132;42.622;23.328;2023-03-14T01:55:46;18.43;;;15.70;;
6197;SDS011;3132;42.622;23.328;2023-03-14T01:58:13;19.20;;;15.90;;
6197;SDS011;3132;42.622;23.328;2023-03-14T02:00:41;18.63;;;16.77;;
6197;SDS011;3132;42.622;23.328;2023-03-14T02:03:09;17.33;;;14.70;;
6197;SDS011;3132;42.622;23.328;2023-03-14T02:05:39;15.00;;;13.57;;
6197;SDS011;3132;42.622;23.328;2023-03-14T02:08:16;14.70;;;13.23;;
6197;SDS011;3132;42.622;23.328;2023-03-14T02:10:45;13.93;;;12.73;;
6197;SDS011;3132;42.622;23.328;2023-03-14T02:13:13;13.93;;;12.63;;
6197;SDS011;3132;42.622;23.328;2023-03-14T02:15:39;13.67;;;12.60;;
6197;SDS011;3132;42.622;23.328;2023-03-14T02:18:06;14.00;;;12.70;;
6197;SDS011;3132;42.622;23.328;2023-03-14T02:23:13;13.63;;;12.53;;
6197;SDS011;3132;42.622;23.328;2023-03-14T02:25:53;13.00;;;12.03;;
6197;SDS011;3132;42.622;23.328;2023-03-14T02:28:26;11.47;;;10.73;;
6197;SDS011;3132;42.622;23.328;2023-03-14T02:30:52;11.77;;;11.07;;
6197;SDS011;3132;42.622;23.328;2023-03-14T02:33:18;12.57;;;11.57;;
6197;SDS011;3132;42.622;23.328;2023-03-14T02:35:50;12.63;;;11.63;;
6197;SDS011;3132;42.622;23.328;2023-03-14T02:38:40;12.30;;;11.20;;
6197;SDS011;3132;42.622;23.328;2023-03-14T02:41:07;12.33;;;11.43;;
6197;SDS011;3132;42.622;23.328;2023-03-14T02:43:32;13.27;;;12.17;;
6197;SDS011;3132;42.622;23.328;2023-03-14T02:45:58;11.70;;;10.80;;
6197;SDS011;3132;42.622;23.328;2023-03-14T02:50:54;13.50;;;12.40;;
6197;SDS011;3132;42.622;23.328;2023-03-14T02:53:24;11.23;;;10.40;;
6197;SDS011;3132;42.622;23.328;2023-03-14T02:55:51;11.23;;;10.33;;
6197;SDS011;3132;42.622;23.328;2023-03-14T02:58:18;12.90;;;11.80;;
6197;SDS011;3132;42.622;23.328;2023-03-14T03:00:43;11.83;;;10.97;;
6197;SDS011;3132;42.622;23.328;2023-03-14T03:03:09;12.33;;;11.33;;
6197;SDS011;3132;42.622;23.328;2023-03-14T03:05:35;13.63;;;12.73;;
6197;SDS011;3132;42.622;23.328;2023-03-14T03:08:00;14.37;;;12.07;;
6197;SDS011;3132;42.622;23.328;2023-03-14T03:10:26;13.20;;;12.30;;
6197;SDS011;3132;42.622;23.328;2023-03-14T03:12:52;13.90;;;11.30;;
6197;SDS011;3132;42.622;23.328;2023-03-14T03:15:18;13.20;;;12.23;;
6197;SDS011;3132;42.622;23.328;2023-03-14T03:17:43;13.30;;;12.10;;
6197;SDS011;3132;42.622;23.328;2023-03-14T03:20:09;14.33;;;13.23;;
6197;SDS011;3132;42.622;23.328;2023-03-14T03:22:36;13.03;;;12.13;;
6197;SDS011;3132;42.622;23.328;2023-03-14T03:25:02;13.93;;;12.73;;
6197;SDS011;3132;42.622;23.328;2023-03-14T03:27:30;12.97;;;11.97;;
6197;SDS011;3132;42.622;23.328;2023-03-14T03:29:56;12.43;;;11.63;;
6197;SDS011;3132;42.622;23.328;2023-03-14T03:32:22;12.87;;;11.93;;
6197;SDS011;3132;42.622;23.328;2023-03-14T03:34:47;12.10;;;11.10;;
6197;SDS011;3132;42.622;23.328;2023-03-14T03:37:13;12.03;;;11.23;;
6197;SDS011;3132;42.622;23.328;2023-03-14T03:39:38;13.47;;;10.53;;
6197;SDS011;3132;42.622;23.328;2023-03-14T03:42:03;10.67;;;9.87;;
6197;SDS011;3132;42.622;23.328;2023-03-14T03:44:29;10.93;;;10.20;;
6197;SDS011;3132;42.622;23.328;2023-03-14T03:46:54;11.77;;;10.87;;
6197;SDS011;3132;42.622;23.328;2023-03-14T03:49:20;11.23;;;10.33;;
6197;SDS011;3132;42.622;23.328;2023-03-14T03:51:45;13.73;;;10.50;;
6197;SDS011;3132;42.622;23.328;2023-03-14T03:54:10;11.53;;;10.73;;
6197;SDS011;3132;42.622;23.328;2023-03-14T03:56:36;11.23;;;10.43;;
6197;SDS011;3132;42.622;23.328;2023-03-14T03:59:01;13.00;;;12.07;;
6197;SDS011;3132;42.622;23.328;2023-03-14T04:01:27;14.03;;;12.80;;
6197;SDS011;3132;42.622;23.328;2023-03-14T04:03:52;14.33;;;13.23;;
6197;SDS011;3132;42.622;23.328;2023-03-14T04:06:17;14.50;;;13.10;;
6197;SDS011;3132;42.622;23.328;2023-03-14T04:08:43;15.47;;;14.03;;
6197;SDS011;3132;42.622;23.328;2023-03-14T04:11:08;14.67;;;13.23;;
6197;SDS011;3132;42.622;23.328;2023-03-14T04:13:34;15.00;;;13.50;;
6197;SDS011;3132;42.622;23.328;2023-03-14T04:15:59;14.97;;;13.47;;
6197;SDS011;3132;42.622;23.328;2023-03-14T04:18:25;16.27;;;14.53;;
6197;SDS011;3132;42.622;23.328;2023-03-14T04:20:51;15.00;;;13.33;;
6197;SDS011;3132;42.622;23.328;2023-03-14T04:23:18;12.30;;;11.17;;
6197;SDS011;3132;42.622;23.328;2023-03-14T04:25:44;11.93;;;11.03;;
6197;SDS011;3132;42.622;23.328;2023-03-14T04:28:09;13.13;;;12.23;;
6197;SDS011;3132;42.622;23.328;2023-03-14T04:30:34;11.73;;;10.83;;
6197;SDS011;3132;42.622;23.328;2023-03-14T04:33:00;13.80;;;12.40;;
6197;SDS011;3132;42.622;23.328;2023-03-14T04:35:25;14.00;;;11.20;;
6197;SDS011;3132;42.622;23.328;2023-03-14T04:37:51;12.47;;;11.37;;
6197;SDS011;3132;42.622;23.328;2023-03-14T04:40:17;12.13;;;11.33;;
6197;SDS011;3132;42.622;23.328;2023-03-14T04:42:42;11.90;;;10.47;;
6197;SDS011;3132;42.622;23.328;2023-03-14T04:45:08;13.63;;;12.30;;
6197;SDS011;3132;42.622;23.328;2023-03-14T04:47:33;17.77;;;13.20;;
6197;SDS011;3132;42.622;23.328;2023-03-14T04:49:59;15.40;;;13.83;;
6197;SDS011;3132;42.622;23.328;2023-03-14T04:52:25;15.07;;;13.57;;
6197;SDS011;3132;42.622;23.328;2023-03-14T04:54:50;16.60;;;13.63;;
6197;SDS011;3132;42.622;23.328;2023-03-14T04:57:16;14.13;;;12.57;;
6197;SDS011;3132;42.622;23.328;2023-03-14T04:59:41;13.60;;;12.20;;
6197;SDS011;3132;42.622;23.328;2023-03-14T05:02:07;14.40;;;12.93;;
6197;SDS011;3132;42.622;23.328;2023-03-14T05:04:32;13.80;;;12.10;;
6197;SDS011;3132;42.622;23.328;2023-03-14T05:06:58;20.20;;;12.50;;
6197;SDS011;3132;42.622;23.328;2023-03-14T05:09:24;13.43;;;12.17;;
6197;SDS011;3132;42.622;23.328;2023-03-14T05:11:50;18.07;;;13.07;;
6197;SDS011;3132;42.622;23.328;2023-03-14T05:14:15;16.40;;;13.20;;
6197;SDS011;3132;42.622;23.328;2023-03-14T05:16:40;13.33;;;12.10;;
6197;SDS011;3132;42.622;23.328;2023-03-14T05:19:06;13.37;;;12.10;;
6197;SDS011;3132;42.622;23.328;2023-03-14T05:21:31;14.37;;;12.73;;
6197;SDS011;3132;42.622;23.328;2023-03-14T05:23:56;13.30;;;12.07;;
6197;SDS011;3132;42.622;23.328;2023-03-14T05:26:22;13.83;;;12.63;;
6197;SDS011;3132;42.622;23.328;2023-03-14T05:28:48;18.37;;;13.03;;
6197;SDS011;3132;42.622;23.328;2023-03-14T05:31:13;17.23;;;14.27;;
6197;SDS011;3132;42.622;23.328;2023-03-14T05:33:39;13.33;;;12.33;;
6197;SDS011;3132;42.622;23.328;2023-03-14T05:36:05;14.57;;;13.07;;
6197;SDS011;3132;42.622;23.328;2023-03-14T05:38:31;15.03;;;13.60;;
6197;SDS011;3132;42.622;23.328;2023-03-14T05:40:56;17.33;;;14.57;;
6197;SDS011;3132;42.622;23.328;2023-03-14T05:43:21;15.60;;;14.13;;
6197;SDS011;3132;42.622;23.328;2023-03-14T05:45:47;22.03;;;13.30;;
6197;SDS011;3132;42.622;23.328;2023-03-14T05:48:12;17.80;;;13.67;;
6197;SDS011;3132;42.622;23.328;2023-03-14T05:50:38;17.10;;;15.50;;
6197;SDS011;3132;42.622;23.328;2023-03-14T05:53:03;16.10;;;14.50;;
6197;SDS011;3132;42.622;23.328;2023-03-14T05:55:30;15.87;;;14.17;;
6197;SDS011;3132;42.622;23.328;2023-03-14T05:57:55;15.27;;;13.77;;
6197;SDS011;3132;42.622;23.328;2023-03-14T06:00:21;18.00;;;14.43;;
6197;SDS011;3132;42.622;23.328;2023-03-14T06:02:46;17.23;;;15.43;;
6197;SDS011;3132;42.622;23.328;2023-03-14T06:05:12;20.13;;;15.43;;
6197;SDS011;3132;42.622;23.328;2023-03-14T06:07:38;17.57;;;15.40;;
6197;SDS011;3132;42.622;23.328;2023-03-14T06:10:03;20.73;;;16.23;;
6197;SDS011;3132;42.622;23.328;2023-03-14T06:12:29;18.60;;;15.07;;
6197;SDS011;3132;42.622;23.328;2023-03-14T06:14:54;17.23;;;15.53;;
6197;SDS011;3132;42.622;23.328;2023-03-14T06:17:20;17.87;;;15.73;;
6197;SDS011;3132;42.622;23.328;2023-03-14T06:19:46;17.97;;;16.17;;
6197;SDS011;3132;42.622;23.328;2023-03-14T06:22:11;18.47;;;15.43;;
6197;SDS011;3132;42.622;23.328;2023-03-14T06:24:36;19.33;;;16.37;;
6197;SDS011;3132;42.622;23.328;2023-03-14T06:27:02;17.90;;;15.23;;
6197;SDS011;3132;42.622;23.328;2023-03-14T06:29:28;17.47;;;15.73;;
6197;SDS011;3132;42.622;23.328;2023-03-14T06:31:55;19.50;;;16.10;;
6197;SDS011;3132;42.622;23.328;2023-03-14T06:34:20;20.87;;;17.37;;
6197;SDS011;3132;42.622;23.328;2023-03-14T06:36:46;20.27;;;17.10;;
6197;SDS011;3132;42.622;23.328;2023-03-14T06:39:11;19.87;;;17.77;;
6197;SDS011;3132;42.622;23.328;2023-03-14T06:41:37;19.23;;;16.43;;
6197;SDS011;3132;42.622;23.328;2023-03-14T06:44:02;19.00;;;17.03;;
6197;SDS011;3132;42.622;23.328;2023-03-14T06:46:28;20.47;;;17.93;;
6197;SDS011;3132;42.622;23.328;2023-03-14T06:48:53;18.80;;;15.67;;
6197;SDS011;3132;42.622;23.328;2023-03-14T06:51:19;18.57;;;16.50;;
6197;SDS011;3132;42.622;23.328;2023-03-14T06:53:44;20.33;;;16.17;;
6197;SDS011;3132;42.622;23.328;2023-03-14T06:56:09;20.43;;;15.50;;
6197;SDS011;3132;42.622;23.328;2023-03-14T06:58:35;20.67;;;16.43;;
6197;SDS011;3132;42.622;23.328;2023-03-14T07:01:01;17.13;;;15.27;;
6197;SDS011;3132;42.622;23.328;2023-03-14T07:03:26;16.80;;;14.27;;
6197;SDS011;3132;42.622;23.328;2023-03-14T07:05:52;17.33;;;13.67;;
6197;SDS011;3132;42.622;23.328;2023-03-14T07:08:18;15.63;;;14.03;;
6197;SDS011;3132;42.622;23.328;2023-03-14T07:10:43;15.10;;;13.67;;
6197;SDS011;3132;42.622;23.328;2023-03-14T07:13:09;14.27;;;12.97;;
6197;SDS011;3132;42.622;23.328;2023-03-14T07:15:34;16.30;;;12.50;;
6197;SDS011;3132;42.622;23.328;2023-03-14T07:18:00;15.37;;;13.90;;
6197;SDS011;3132;42.622;23.328;2023-03-14T07:20:25;13.73;;;12.50;;
6197;SDS011;3132;42.622;23.328;2023-03-14T07:22:50;13.63;;;12.20;;
6197;SDS011;3132;42.622;23.328;2023-03-14T07:25:16;13.50;;;12.30;;
6197;SDS011;3132;42.622;23.328;2023-03-14T07:27:43;13.37;;;12.13;;
6197;SDS011;3132;42.622;23.328;2023-03-14T07:30:10;12.13;;;11.13;;
6197;SDS011;3132;42.622;23.328;2023-03-14T07:32:36;12.67;;;11.57;;
6197;SDS011;3132;42.622;23.328;2023-03-14T07:35:01;13.73;;;12.23;;
6197;SDS011;3132;42.622;23.328;2023-03-14T07:37:27;13.50;;;12.47;;
6197;SDS011;3132;42.622;23.328;2023-03-14T07:39:52;13.93;;;12.27;;
6197;SDS011;3132;42.622;23.328;2023-03-14T07:42:18;13.63;;;12.33;;
6197;SDS011;3132;42.622;23.328;2023-03-14T07:44:43;13.30;;;12.17;;
6197;SDS011;3132;42.622;23.328;2023-03-14T07:47:08;13.83;;;12.40;;
6197;SDS011;3132;42.622;23.328;2023-03-14T07:49:34;12.80;;;11.47;;
6197;SDS011;3132;42.622;23.328;2023-03-14T07:51:59;13.20;;;11.80;;
6197;SDS011;3132;42.622;23.328;2023-03-14T07:54:24;12.40;;;11.57;;
6197;SDS011;3132;42.622;23.328;2023-03-14T07:56:50;12.47;;;11.40;;
6197;SDS011;3132;42.622;23.328;2023-03-14T07:59:17;13.47;;;12.47;;
6197;SDS011;3132;42.622;23.328;2023-03-14T08:01:42;12.57;;;11.37;;
6197;SDS011;3132;42.622;23.328;2023-03-14T08:04:08;12.47;;;11.63;;
6197;SDS011;3132;42.622;23.328;2023-03-14T08:06:34;12.03;;;11.13;;
6197;SDS011;3132;42.622;23.328;2023-03-14T08:09:00;13.60;;;12.47;;
6197;SDS011;3132;42.622;23.328;2023-03-14T08:11:26;12.50;;;11.40;;
6197;SDS011;3132;42.622;23.328;2023-03-14T08:13:51;12.80;;;11.83;;
6197;SDS011;3132;42.622;23.328;2023-03-14T08:16:17;12.60;;;11.50;;
6197;SDS011;3132;42.622;23.328;2023-03-14T08:18:43;13.20;;;11.90;;
6197;SDS011;3132;42.622;23.328;2023-03-14T08:21:09;14.07;;;12.97;;
6197;SDS011;3132;42.622;23.328;2023-03-14T08:23:35;13.63;;;12.63;;
6197;SDS011;3132;42.622;23.328;2023-03-14T08:26:00;13.77;;;12.50;;
6197;SDS011;3132;42.622;23.328;2023-03-14T08:28:25;14.87;;;13.47;;
6197;SDS011;3132;42.622;23.328;2023-03-14T08:30:55;13.80;;;12.67;;
6197;SDS011;3132;42.622;23.328;2023-03-14T08:33:22;15.10;;;13.70;;
6197;SDS011;3132;42.622;23.328;2023-03-14T08:35:51;14.07;;;12.87;;
6197;SDS011;3132;42.622;23.328;2023-03-14T08:38:17;14.33;;;12.70;;
6197;SDS011;3132;42.622;23.328;2023-03-14T08:40:43;15.00;;;13.60;;
6197;SDS011;3132;42.622;23.328;2023-03-14T08:43:08;13.90;;;12.60;;
6197;SDS011;3132;42.622;23.328;2023-03-14T08:45:33;15.83;;;11.40;;
6197;SDS011;3132;42.622;23.328;2023-03-14T08:47:59;14.43;;;12.97;;
6197;SDS011;3132;42.622;23.328;2023-03-14T08:50:24;14.33;;;12.83;;
6197;SDS011;3132;42.622;23.328;2023-03-14T08:52:50;14.10;;;12.67;;
6197;SDS011;3132;42.622;23.328;2023-03-14T08:55:15;14.77;;;13.37;;
6197;SDS011;3132;42.622;23.328;2023-03-14T08:57:41;14.53;;;13.17;;
6197;SDS011;3132;42.622;23.328;2023-03-14T09:00:07;18.20;;;12.60;;
6197;SDS011;3132;42.622;23.328;2023-03-14T09:02:35;14.33;;;13.03;;
6197;SDS011;3132;42.622;23.328;2023-03-14T09:05:01;13.03;;;11.73;;
6197;SDS011;3132;42.622;23.328;2023-03-14T09:07:27;14.70;;;13.23;;
6197;SDS011;3132;42.622;23.328;2023-03-14T09:09:52;15.50;;;14.13;;
6197;SDS011;3132;42.622;23.328;2023-03-14T09:12:17;14.37;;;13.27;;
6197;SDS011;3132;42.622;23.328;2023-03-14T09:14:43;14.57;;;13.27;;
6197;SDS011;3132;42.622;23.328;2023-03-14T09:17:08;15.33;;;13.83;;
6197;SDS011;3132;42.622;23.328;2023-03-14T09:19:34;14.57;;;13.30;;
6197;SDS011;3132;42.622;23.328;2023-03-14T09:21:59;14.90;;;13.50;;
6197;SDS011;3132;42.622;23.328;2023-03-14T09:24:25;15.33;;;13.83;;
6197;SDS011;3132;42.622;23.328;2023-03-14T09:26:50;15.53;;;14.17;;
6197;SDS011;3132;42.622;23.328;2023-03-14T09:29:15;16.57;;;15.07;;
6197;SDS011;3132;42.622;23.328;2023-03-14T09:31:41;15.30;;;12.90;;
6197;SDS011;3132;42.622;23.328;2023-03-14T09:34:06;14.30;;;12.73;;
6197;SDS011;3132;42.622;23.328;2023-03-14T09:36:31;14.60;;;13.20;;
6197;SDS011;3132;42.622;23.328;2023-03-14T09:38:57;16.37;;;13.67;;
6197;SDS011;3132;42.622;23.328;2023-03-14T09:41:27;14.27;;;12.97;;
6197;SDS011;3132;42.622;23.328;2023-03-14T09:44:04;18.73;;;14.43;;
6197;SDS011;3132;42.622;23.328;2023-03-14T09:46:35;15.43;;;14.03;;
6197;SDS011;3132;42.622;23.328;2023-03-14T09:49:04;16.10;;;14.63;;
6197;SDS011;3132;42.622;23.328;2023-03-14T09:51:36;16.07;;;14.63;;
6197;SDS011;3132;42.622;23.328;2023-03-14T09:54:02;15.00;;;13.37;;
6197;SDS011;3132;42.622;23.328;2023-03-14T09:56:31;16.80;;;15.07;;
6197;SDS011;3132;42.622;23.328;2023-03-14T09:58:59;16.00;;;14.50;;
6197;SDS011;3132;42.622;23.328;2023-03-14T10:01:28;17.10;;;15.37;;
6197;SDS011;3132;42.622;23.328;2023-03-14T10:03:56;17.03;;;15.20;;
6197;SDS011;3132;42.622;23.328;2023-03-14T10:06:26;16.13;;;14.50;;
6197;SDS011;3132;42.622;23.328;2023-03-14T10:08:53;17.03;;;15.33;;
6197;SDS011;3132;42.622;23.328;2023-03-14T10:11:20;15.23;;;13.83;;
6197;SDS011;3132;42.622;23.328;2023-03-14T10:16:37;15.63;;;14.13;;
6197;SDS011;3132;42.622;23.328;2023-03-14T10:19:09;15.37;;;14.00;;
6197;SDS011;3132;42.622;23.328;2023-03-14T10:21:38;15.67;;;13.90;;
6197;SDS011;3132;42.622;23.328;2023-03-14T10:24:08;14.97;;;13.47;;
6197;SDS011;3132;42.622;23.328;2023-03-14T10:27:17;14.23;;;12.90;;
6197;SDS011;3132;42.622;23.328;2023-03-14T10:29:53;15.80;;;14.37;;
6197;SDS011;3132;42.622;23.328;2023-03-14T10:32:21;15.43;;;13.93;;
6197;SDS011;3132;42.622;23.328;2023-03-14T10:35:04;14.87;;;13.33;;
6197;SDS011;3132;42.622;23.328;2023-03-14T10:37:30;14.87;;;13.40;;
6197;SDS011;3132;42.622;23.328;2023-03-14T10:39:57;15.10;;;13.30;;
6197;SDS011;3132;42.622;23.328;2023-03-14T10:42:30;14.30;;;12.80;;
6197;SDS011;3132;42.622;23.328;2023-03-14T10:45:06;14.07;;;12.87;;
6197;SDS011;3132;42.622;23.328;2023-03-14T10:47:50;15.50;;;13.90;;
6197;SDS011;3132;42.622;23.328;2023-03-14T10:52:53;14.30;;;12.57;;
6197;SDS011;3132;42.622;23.328;2023-03-14T10:55:19;13.90;;;12.73;;
6197;SDS011;3132;42.622;23.328;2023-03-14T10:57:45;13.27;;;12.03;;
6197;SDS011;3132;42.622;23.328;2023-03-14T11:07:45;13.80;;;12.80;;
6197;SDS011;3132;42.622;23.328;2023-03-14T11:19:47;12.33;;;11.27;;
6197;SDS011;3132;42.622;23.328;2023-03-14T11:24:48;14.47;;;12.70;;
6197;SDS011;3132;42.622;23.328;2023-03-14T11:29:54;13.70;;;12.37;;
6197;SDS011;3132;42.622;23.328;2023-03-14T11:40:47;11.63;;;10.93;;
6197;SDS011;3132;42.622;23.328;2023-03-14T11:43:17;17.60;;;11.30;;
6197;SDS011;3132;42.622;23.328;2023-03-14T11:45:49;11.00;;;9.97;;
6197;SDS011;3132;42.622;23.328;2023-03-14T11:50:51;10.90;;;10.13;;
6197;SDS011;3132;42.622;23.328;2023-03-14T11:56:13;12.10;;;11.10;;
6197;SDS011;3132;42.622;23.328;2023-03-14T11:58:58;11.60;;;10.43;;
6197;SDS011;3132;42.622;23.328;2023-03-14T12:01:30;10.63;;;9.80;;
6197;SDS011;3132;42.622;23.328;2023-03-14T12:04:11;10.20;;;9.40;;
6197;SDS011;3132;42.622;23.328;2023-03-14T12:06:49;10.87;;;10.07;;
6197;SDS011;3132;42.622;23.328;2023-03-14T12:09:16;9.67;;;9.07;;
6197;SDS011;3132;42.622;23.328;2023-03-14T12:11:47;9.87;;;9.17;;
6197;SDS011;3132;42.622;23.328;2023-03-14T12:17:25;10.03;;;9.33;;
6197;SDS011;3132;42.622;23.328;2023-03-14T12:19:45;10.80;;;10.03;;
6197;SDS011;3132;42.622;23.328;2023-03-14T12:22:26;11.00;;;9.97;;
6197;SDS011;3132;42.622;23.328;2023-03-14T12:25:00;11.00;;;10.13;;
6197;SDS011;3132;42.622;23.328;2023-03-14T12:30:18;10.63;;;9.60;;
6197;SDS011;3132;42.622;23.328;2023-03-14T12:33:11;10.17;;;9.47;;
6197;SDS011;3132;42.622;23.328;2023-03-14T12:35:43;9.63;;;9.03;;
6197;SDS011;3132;42.622;23.328;2023-03-14T12:43:39;10.50;;;9.63;;
6197;SDS011;3132;42.622;23.328;2023-03-14T12:46:08;11.13;;;10.33;;
6197;SDS011;3132;42.622;23.328;2023-03-14T12:48:46;11.23;;;10.10;;
6197;SDS011;3132;42.622;23.328;2023-03-14T12:51:13;10.77;;;9.97;;
6197;SDS011;3132;42.622;23.328;2023-03-14T13:02:20;10.70;;;9.73;;
6197;SDS011;3132;42.622;23.328;2023-03-14T13:07:13;11.67;;;10.70;;
6197;SDS011;3132;42.622;23.328;2023-03-14T13:10:00;10.03;;;9.47;;
6197;SDS011;3132;42.622;23.328;2023-03-14T13:12:31;9.17;;;8.77;;
6197;SDS011;3132;42.622;23.328;2023-03-14T13:15:02;10.03;;;9.53;;
6197;SDS011;3132;42.622;23.328;2023-03-14T13:17:41;10.00;;;8.97;;
6197;SDS011;3132;42.622;23.328;2023-03-14T13:20:19;10.43;;;8.83;;
6197;SDS011;3132;42.622;23.328;2023-03-14T13:22:49;10.10;;;9.47;;
6197;SDS011;3132;42.622;23.328;2023-03-14T13:25:15;9.93;;;9.33;;
6197;SDS011;3132;42.622;23.328;2023-03-14T13:27:46;10.13;;;9.53;;
6197;SDS011;3132;42.622;23.328;2023-03-14T13:30:46;9.37;;;8.67;;
6197;SDS011;3132;42.622;23.328;2023-03-14T13:33:06;10.17;;;9.53;;
6197;SDS011;3132;42.622;23.328;2023-03-14T13:35:39;8.90;;;8.37;;
6197;SDS011;3132;42.622;23.328;2023-03-14T13:38:18;9.17;;;8.70;;
6197;SDS011;3132;42.622;23.328;2023-03-14T13:40:45;9.20;;;8.70;;
6197;SDS011;3132;42.622;23.328;2023-03-14T13:48:18;8.50;;;8.10;;
6197;SDS011;3132;42.622;23.328;2023-03-14T13:51:01;9.43;;;8.90;;
6197;SDS011;3132;42.622;23.328;2023-03-14T13:53:30;9.10;;;8.60;;
6197;SDS011;3132;42.622;23.328;2023-03-14T13:55:56;9.33;;;8.77;;
6197;SDS011;3132;42.622;23.328;2023-03-14T13:58:27;8.73;;;8.17;;
6197;SDS011;3132;42.622;23.328;2023-03-14T14:01:16;8.83;;;8.40;;
6197;SDS011;3132;42.622;23.328;2023-03-14T14:03:52;8.83;;;8.27;;
6197;SDS011;3132;42.622;23.328;2023-03-14T14:08:52;8.73;;;8.20;;
6197;SDS011;3132;42.622;23.328;2023-03-14T14:14:08;8.80;;;8.33;;
6197;SDS011;3132;42.622;23.328;2023-03-14T14:16:41;8.57;;;8.17;;
6197;SDS011;3132;42.622;23.328;2023-03-14T14:19:09;10.37;;;9.50;;
6197;SDS011;3132;42.622;23.328;2023-03-14T14:21:36;8.97;;;8.37;;
6197;SDS011;3132;42.622;23.328;2023-03-14T14:24:02;8.17;;;7.67;;
6197;SDS011;3132;42.622;23.328;2023-03-14T14:26:28;9.20;;;8.77;;
6197;SDS011;3132;42.622;23.328;2023-03-14T14:29:04;9.27;;;8.77;;
6197;SDS011;3132;42.622;23.328;2023-03-14T14:31:30;9.83;;;9.10;;
6197;SDS011;3132;42.622;23.328;2023-03-14T14:33:59;9.17;;;8.77;;
6197;SDS011;3132;42.622;23.328;2023-03-14T14:39:38;8.57;;;8.17;;
6197;SDS011;3132;42.622;23.328;2023-03-14T14:41:43;9.00;;;8.40;;
6197;SDS011;3132;42.622;23.328;2023-03-14T14:44:12;9.27;;;8.77;;
6197;SDS011;3132;42.622;23.328;2023-03-14T14:46:41;8.43;;;7.83;;
6197;SDS011;3132;42.622;23.328;2023-03-14T14:49:14;8.83;;;8.03;;
6197;SDS011;3132;42.622;23.328;2023-03-14T14:51:45;9.63;;;9.13;;
6197;SDS011;3132;42.622;23.328;2023-03-14T14:54:17;9.57;;;8.87;;
6197;SDS011;3132;42.622;23.328;2023-03-14T14:56:48;8.23;;;7.70;;
6197;SDS011;3132;42.622;23.328;2023-03-14T14:59:26;9.47;;;8.80;;
6197;SDS011;3132;42.622;23.328;2023-03-14T15:01:57;8.70;;;8.20;;
6197;SDS011;3132;42.622;23.328;2023-03-14T15:04:24;9.07;;;8.57;;
6197;SDS011;3132;42.622;23.328;2023-03-14T15:06:50;9.90;;;9.13;;
6197;SDS011;3132;42.622;23.328;2023-03-14T15:09:17;9.77;;;8.87;;
6197;SDS011;3132;42.622;23.328;2023-03-14T15:11:43;9.43;;;8.93;;
6197;SDS011;3132;42.622;23.328;2023-03-14T15:14:09;9.57;;;8.77;;
6197;SDS011;3132;42.622;23.328;2023-03-14T15:16:34;9.27;;;8.57;;
6197;SDS011;3132;42.622;23.328;2023-03-14T15:19:01;9.43;;;8.70;;
6197;SDS011;3132;42.622;23.328;2023-03-14T15:21:31;10.03;;;9.43;;
6197;SDS011;3132;42.622;23.328;2023-03-14T15:23:56;10.33;;;9.10;;
6197;SDS011;3132;42.622;23.328;2023-03-14T15:26:23;9.47;;;8.77;;
6197;SDS011;3132;42.622;23.328;2023-03-14T15:28:50;9.77;;;9.10;;
6197;SDS011;3132;42.622;23.328;2023-03-14T15:31:17;9.40;;;9.00;;
6197;SDS011;3132;42.622;23.328;2023-03-14T15:33:44;7.87;;;7.57;;
6197;SDS011;3132;42.622;23.328;2023-03-14T15:36:25;10.43;;;9.73;;
6197;SDS011;3132;42.622;23.328;2023-03-14T15:38:52;9.90;;;9.30;;
6197;SDS011;3132;42.622;23.328;2023-03-14T15:41:19;10.33;;;9.43;;
6197;SDS011;3132;42.622;23.328;2023-03-14T15:43:45;11.17;;;10.03;;
6197;SDS011;3132;42.622;23.328;2023-03-14T15:46:11;10.60;;;9.80;;
6197;SDS011;3132;42.622;23.328;2023-03-14T15:48:37;9.87;;;9.20;;
6197;SDS011;3132;42.622;23.328;2023-03-14T15:51:04;10.10;;;9.30;;
6197;SDS011;3132;42.622;23.328;2023-03-14T15:53:29;8.90;;;8.40;;
6197;SDS011;3132;42.622;23.328;2023-03-14T15:55:55;11.20;;;9.93;;
6197;SDS011;3132;42.622;23.328;2023-03-14T15:58:20;15.00;;;13.93;;
6197;SDS011;3132;42.622;23.328;2023-03-14T16:00:46;11.00;;;10.07;;
6197;SDS011;3132;42.622;23.328;2023-03-14T16:03:11;10.50;;;9.53;;
6197;SDS011;3132;42.622;23.328;2023-03-14T16:05:38;9.90;;;8.83;;